National Weather Service United States Department of Commerce
Click Here for Latest Airport Weather Warnings
 
Latest Huntsville TAF


000
FTUS44 KHUN 050520
TAFHSV
TAF
KHSV 050520Z 0506/0606 VRB04KT P6SM OVC070
FM051000 VRB03KT P6SM VCSH OVC030
TEMPO 0512/0516 3SM SHRA BR OVC009
FM051600 VRB04KT 3SM SHRA BR OVC009
FM052000 14007KT 2SM SHRA BR OVC007 PROB30 0600/0606 1SM TSRA
BR OVC005CB=

Latest Muscle Shoals TAF


000
FTUS44 KHUN 050520
TAFMSL
TAF
KMSL 050520Z 0506/0606 VRB03KT P6SM OVC050
FM050900 VRB02KT P6SM VCSH OVC025
TEMPO 0511/0515 3SM SHRA BR OVC008
FM051500 VRB04KT 3SM SHRA BR OVC008
FM051900 15007KT 2SM SHRA BR OVC007 PROB30 0523/0605 1SM TSRA
BR OVC005CB=


Back to Main Huntsville Weather Forecast Office Page